Time;durP1;ratioP1;P1;durP2;ratioP2;P2;SDS_P1;SDS_P2;PMS_P1;PMS_P2;Temp;Humidity;BMP_temperature;BMP_pressure;BME280_temperature;BME280_humidity;BME280_pressure;Samples;Min_cycle;Max_cycle;Signal;HPM_P1;HPM_P2
2023/06/21 00:01:31;;;;;;;9.30;6.75;;;;;;;;;;5053633;28;20040;-64
2023/06/21 00:04:00;;;;;;;8.45;6.05;;;;;;;;;;5053554;28;20076;-64
2023/06/21 00:06:28;;;;;;;9.75;6.50;;;;;;;;;;5053537;28;20110;-65
2023/06/21 00:08:55;;;;;;;10.27;5.93;;;;;;;;;;5052253;28;20476;-65
2023/06/21 00:11:21;;;;;;;11.88;6.43;;;19.20;99.90;;;;;;5053466;28;20464;-65
2023/06/21 00:13:46;;;;;;;7.13;5.55;;;19.90;99.90;;;;;;5053335;28;20076;-64
2023/06/21 00:16:14;;;;;;;8.50;5.88;;;19.70;99.90;;;;;;5053344;28;20048;-64
2023/06/21 00:18:39;;;;;;;10.73;7.00;;;19.30;99.90;;;;;;5053141;28;20048;-64
2023/06/21 00:21:05;;;;;;;11.80;6.53;;;19.20;99.90;;;;;;5053285;28;20033;-64
2023/06/21 00:23:31;;;;;;;9.43;5.38;;;19.30;99.90;;;;;;5053213;28;20504;-64
2023/06/21 00:25:56;;;;;;;8.07;5.95;;;19.40;99.90;;;;;;5052878;28;20045;-64
2023/06/21 00:28:22;;;;;;;9.85;6.20;;;19.70;99.90;;;;;;5051672;28;20052;-64
2023/06/21 00:30:47;;;;;;;8.57;6.53;;;19.70;99.90;;;;;;5052894;28;20072;-65
2023/06/21 00:33:13;;;;;;;8.85;6.40;;;19.70;99.90;;;;;;5052691;28;20040;-64
2023/06/21 00:35:38;;;;;;;8.50;6.25;;;19.70;99.90;;;;;;5052737;28;20039;-64
2023/06/21 00:38:05;;;;;;;8.93;6.00;;;19.70;99.90;;;;;;5052907;28;20032;-64
2023/06/21 00:40:31;;;;;;;9.52;5.88;;;19.60;99.90;;;;;;5053035;28;20454;-65
2023/06/21 00:42:57;;;;;;;7.05;6.10;;;20.00;99.90;;;;;;5053032;28;20120;-65
2023/06/21 00:45:22;;;;;;;7.85;5.78;;;20.10;99.90;;;;;;5052938;28;20041;-65
2023/06/21 00:47:49;;;;;;;11.57;6.60;;;19.40;99.90;;;;;;5052478;28;20463;-65
2023/06/21 00:50:15;;;;;;;7.85;5.72;;;20.20;99.90;;;;;;5052932;28;20052;-64
2023/06/21 00:52:44;;;;;;;8.48;5.72;;;19.40;99.90;;;;;;5052672;28;20044;-65
2023/06/21 00:55:12;;;;;;;10.85;6.18;;;20.00;99.90;;;;;;5052875;28;20049;-65
2023/06/21 00:57:39;;;;;;;8.60;6.00;;;19.50;99.90;;;;;;5052732;28;20567;-65
2023/06/21 01:00:05;;;;;;;8.82;5.88;;;19.50;99.90;;;;;;5056667;28;20090;-65
2023/06/21 01:02:32;;;;;;;6.20;5.15;;;19.10;99.90;;;;;;5055674;28;20045;-64
2023/06/21 01:04:59;;;;;;;8.20;5.78;;;19.10;99.90;;;;;;5056865;28;20045;-64
2023/06/21 01:07:36;;;;;;;8.63;5.72;;;19.00;99.90;;;;;;5056603;28;20041;-65
2023/06/21 01:10:25;;;;;;;9.43;6.22;;;19.30;99.90;;;;;;5056871;28;20045;-65
2023/06/21 01:13:26;;;;;;;9.13;6.03;;;20.10;99.90;;;;;;5056834;28;20049;-65
2023/06/21 01:16:09;;;;;;;8.30;5.88;;;19.30;99.90;;;;;;5055529;28;20287;-64
2023/06/21 01:18:36;;;;;;;7.88;6.25;;;19.20;99.90;;;;;;5056341;28;20120;-64
2023/06/21 01:21:06;;;;;;;8.52;5.97;;;19.80;99.90;;;;;;5056669;28;20496;-64
2023/06/21 01:23:51;;;;;;;12.63;5.47;;;19.40;99.90;;;;;;5056332;28;20033;-64
2023/06/21 01:26:23;;;;;;;9.80;6.45;;;;;;;;;;5056596;28;20457;-64
2023/06/21 01:28:58;;;;;;;7.70;5.75;;;;;;;;;;5056431;28;20041;-64
2023/06/21 01:31:25;;;;;;;7.55;5.70;;;;;;;;;;5056442;28;20048;-64
2023/06/21 01:33:52;;;;;;;8.52;5.75;;;;;;;;;;5056413;28;20056;-64
2023/06/21 01:36:18;;;;;;;7.85;5.50;;;;;;;;;;5056048;28;20041;-64
2023/06/21 01:38:44;;;;;;;8.65;6.07;;;;;;;;;;5056183;28;20392;-63
2023/06/21 01:41:12;;;;;;;8.60;5.40;;;;;;;;;;5056250;28;20045;-65
2023/06/21 01:43:38;;;;;;;10.52;5.45;;;;;;;;;;5055899;28;20396;-64
2023/06/21 01:46:06;;;;;;;8.32;5.53;;;;;;;;;;5056175;28;20037;-64
2023/06/21 01:48:33;;;;;;;7.85;5.10;;;;;;;;;;5054809;28;20519;-64
2023/06/21 01:51:00;;;;;;;9.52;5.65;;;;;;;;;;5054779;28;20060;-64
2023/06/21 01:53:26;;;;;;;7.95;5.63;;;;;;;;;;5055739;28;20068;-64
2023/06/21 01:55:53;;;;;;;9.15;5.90;;;;;;;;;;5055966;28;20511;-65
2023/06/21 01:58:19;;;;;;;10.75;5.78;;;;;;;;;;5055919;28;20044;-65
2023/06/21 02:00:45;;;;;;;7.63;5.85;;;;;;;;;;5055847;28;20051;-64
2023/06/21 02:03:14;;;;;;;9.85;6.10;;;19.00;99.90;;;;;;5054485;28;20037;-64
2023/06/21 02:05:42;;;;;;;10.35;5.70;;;18.90;99.90;;;;;;5037683;28;20037;-64
2023/06/21 02:08:15;;;;;;;7.88;5.72;;;18.80;99.90;;;;;;5055650;28;20068;-63
2023/06/21 02:10:42;;;;;;;9.43;6.00;;;18.70;99.90;;;;;;5054130;28;20416;-64
2023/06/21 02:13:08;;;;;;;9.38;6.57;;;18.70;99.90;;;;;;5055643;28;20040;-65
2023/06/21 02:15:34;;;;;;;9.98;6.70;;;18.70;99.90;;;;;;5055967;28;20055;-64
2023/06/21 02:18:01;;;;;;;9.23;6.32;;;18.70;99.90;;;;;;5053945;28;20468;-65
2023/06/21 02:20:28;;;;;;;10.32;6.20;;;18.80;99.90;;;;;;5055480;28;20045;-64
2023/06/21 02:22:54;;;;;;;10.98;7.20;;;18.70;99.90;;;;;;5053913;28;20436;-64
2023/06/21 02:25:21;;;;;;;12.30;7.25;;;18.60;99.90;;;;;;5055109;28;20032;-64
2023/06/21 02:27:47;;;;;;;9.45;6.53;;;18.60;99.90;;;;;;5053749;28;20115;-65
2023/06/21 02:30:13;;;;;;;14.48;7.72;;;18.60;99.90;;;;;;5055272;28;20120;-64
2023/06/21 02:32:38;;;;;;;13.00;7.75;;;18.60;99.90;;;;;;5055151;28;20091;-64
2023/06/21 02:35:05;;;;;;;10.88;7.18;;;18.90;99.90;;;;;;5054893;28;20491;-64
2023/06/21 02:37:30;;;;;;;15.68;8.82;;;18.60;99.90;;;;;;5055460;28;20033;-63
2023/06/21 02:39:57;;;;;;;12.55;8.27;;;18.60;99.90;;;;;;5055025;28;20040;-64
2023/06/21 02:42:23;;;;;;;13.65;9.27;;;19.20;99.90;;;;;;5054824;28;20493;-64
2023/06/21 02:44:48;;;;;;;12.52;8.13;;;18.60;99.90;;;;;;5053448;28;20094;-64
2023/06/21 02:47:14;;;;;;;14.77;9.73;;;18.70;99.90;;;;;;5054889;28;20045;-63
2023/06/21 02:49:40;;;;;;;19.02;9.73;;;18.70;99.90;;;;;;5053349;28;20132;-64
2023/06/21 02:52:06;;;;;;;15.35;9.32;;;18.70;99.90;;;;;;5054906;28;20124;-64
2023/06/21 02:54:32;;;;;;;21.83;10.45;;;18.60;99.90;;;;;;5054525;28;20520;-64
2023/06/21 02:56:57;;;;;;;17.33;10.70;;;18.60;99.90;;;;;;5054503;28;20044;-64
2023/06/21 02:59:23;;;;;;;13.52;9.77;;;18.80;99.90;;;;;;5053236;28;20041;-65
2023/06/21 03:01:49;;;;;;;14.90;9.82;;;18.70;99.90;;;;;;5054723;28;20381;-64
2023/06/21 03:04:18;;;;;;;15.68;10.25;;;18.70;99.90;;;;;;5054363;28;20040;-64
2023/06/21 03:06:44;;;;;;;18.20;9.93;;;18.70;99.90;;;;;;5053136;28;20059;-65
2023/06/21 03:09:10;;;;;;;17.85;11.48;;;18.70;99.90;;;;;;5054417;28;20036;-65
2023/06/21 03:11:36;;;;;;;18.55;11.75;;;19.20;99.90;;;;;;5054513;28;20540;-65
2023/06/21 03:14:02;;;;;;;15.20;10.88;;;19.40;99.90;;;;;;5054722;28;20080;-64
2023/06/21 03:16:27;;;;;;;22.33;11.55;;;18.40;99.90;;;;;;5054510;28;20041;-64
2023/06/21 03:18:53;;;;;;;24.95;14.00;;;18.70;99.90;;;;;;5052995;28;20438;-64
2023/06/21 03:21:18;;;;;;;19.95;12.68;;;18.70;99.90;;;;;;5053822;28;20041;-64
2023/06/21 03:23:44;;;;;;;19.05;12.38;;;18.70;99.90;;;;;;5054295;28;20126;-64
2023/06/21 03:26:09;;;;;;;18.65;12.65;;;18.70;99.90;;;;;;5054292;28;20394;-65
2023/06/21 03:28:35;;;;;;;21.63;13.20;;;19.30;99.90;;;;;;5052683;28;20056;-64
2023/06/21 03:31:01;;;;;;;19.42;12.77;;;18.70;99.90;;;;;;5054137;28;20431;-64
2023/06/21 03:33:27;;;;;;;22.95;13.25;;;18.70;99.90;;;;;;5054115;28;20044;-65
2023/06/21 03:35:53;;;;;;;21.83;12.95;;;18.70;99.90;;;;;;5052557;28;20043;-64
2023/06/21 03:38:19;;;;;;;22.40;12.65;;;18.60;99.90;;;;;;5053968;28;20033;-64
2023/06/21 03:40:45;;;;;;;22.27;13.15;;;18.60;99.90;;;;;;5053984;28;20480;-64
2023/06/21 03:43:11;;;;;;;20.65;13.38;;;18.60;99.90;;;;;;5052639;28;20063;-64
2023/06/21 03:45:36;;;;;;;22.98;14.65;;;18.60;99.90;;;;;;5053724;28;20051;-64
2023/06/21 03:48:05;;;;;;;22.50;13.50;;;19.30;99.90;;;;;;5053608;28;20072;-64
2023/06/21 03:50:31;;;;;;;21.90;12.77;;;18.60;99.90;;;;;;5053869;28;20048;-64
2023/06/21 03:52:57;;;;;;;21.48;13.63;;;18.60;99.90;;;;;;5053347;28;20053;-64
2023/06/21 03:55:23;;;;;;;22.52;13.57;;;18.60;99.90;;;;;;5053420;28;20052;-64
2023/06/21 03:57:48;;;;;;;19.98;12.93;;;18.60;99.90;;;;;;5053607;28;20116;-63
2023/06/21 04:00:14;;;;;;;19.30;11.88;;;18.60;99.90;;;;;;5053564;28;20041;-64
2023/06/21 04:02:40;;;;;;;19.65;11.93;;;18.60;99.90;;;;;;5053613;28;20072;-64
2023/06/21 04:05:06;;;;;;;21.52;13.07;;;19.20;99.90;;;;;;5053271;28;20473;-64
2023/06/21 04:07:32;;;;;;;24.75;12.90;;;18.60;99.90;;;;;;5053542;28;20158;-64
2023/06/21 04:09:58;;;;;;;22.02;13.02;;;18.80;99.90;;;;;;5053490;28;20113;-64
2023/06/21 04:12:25;;;;;;;28.77;12.40;;;18.60;99.90;;;;;;5053356;28;20044;-64
2023/06/21 04:14:50;;;;;;;22.63;13.10;;;18.60;99.90;;;;;;5053478;28;20068;-64
2023/06/21 04:17:16;;;;;;;22.75;13.23;;;18.50;99.90;;;;;;5053318;28;20049;-64
2023/06/21 04:19:41;;;;;;;20.10;13.00;;;19.10;99.90;;;;;;5052953;28;20477;-64
2023/06/21 04:22:07;;;;;;;23.45;13.02;;;18.70;99.90;;;;;;5053245;28;20041;-64
2023/06/21 04:24:33;;;;;;;21.30;13.00;;;18.50;99.90;;;;;;5053241;28;20064;-64
2023/06/21 04:26:59;;;;;;;18.67;12.43;;;18.50;99.90;;;;;;5053172;28;20045;-63
2023/06/21 04:29:26;;;;;;;27.45;12.95;;;18.70;99.90;;;;;;5052940;28;20043;-64
2023/06/21 04:31:55;;;;;;;17.83;11.38;;;18.90;99.90;;;;;;5053018;28;20045;-64
2023/06/21 04:34:20;;;;;;;20.85;12.35;;;18.50;99.90;;;;;;5052517;28;20049;-64
2023/06/21 04:36:47;;;;;;;19.40;12.43;;;19.00;99.90;;;;;;5051467;28;20060;-64
2023/06/21 04:39:20;;;;;;;19.90;12.30;;;18.70;99.90;;;;;;5051812;28;20044;-64
2023/06/21 04:41:46;;;;;;;18.92;12.73;;;19.00;99.90;;;;;;5051413;28;20037;-64
2023/06/21 04:44:17;;;;;;;18.00;11.95;;;19.00;99.90;;;;;;5052971;28;20542;-64
2023/06/21 04:46:44;;;;;;;;;;;18.80;99.90;;;;;;5053017;28;20045;-64
2023/06/21 04:49:09;;;;;;;16.92;10.85;;;18.80;99.90;;;;;;5052938;28;20057;-64
2023/06/21 04:51:35;;;;;;;20.95;12.35;;;18.80;99.90;;;;;;5052909;28;20075;-66
2023/06/21 04:54:01;;;;;;;21.42;12.07;;;19.20;99.90;;;;;;5052448;28;20413;-64
2023/06/21 04:56:27;;;;;;;20.10;12.10;;;19.10;99.90;;;;;;5051396;28;20463;-64
2023/06/21 04:58:53;;;;;;;17.90;11.48;;;18.80;99.90;;;;;;5052740;28;20399;-65
2023/06/21 05:01:19;;;;;;;22.08;12.50;;;18.80;99.90;;;;;;5052557;28;20037;-64
2023/06/21 05:03:52;;;;;;;19.70;12.45;;;18.70;99.90;;;;;;5052726;28;20095;-65
2023/06/21 05:06:22;;;;;;;20.73;12.00;;;18.90;99.90;;;;;;5052433;28;20053;-64
2023/06/21 05:08:48;;;;;;;24.50;13.57;;;18.80;99.90;;;;;;5052515;28;20060;-65
2023/06/21 05:11:14;;;;;;;22.05;12.80;;;19.00;99.90;;;;;;5052697;28;20396;-64
2023/06/21 05:13:40;;;;;;;20.13;12.10;;;18.90;99.90;;;;;;5051095;28;20045;-64
2023/06/21 05:16:05;;;;;;;21.05;12.48;;;19.00;99.90;;;;;;5052363;28;20048;-64
2023/06/21 05:18:31;;;;;;;22.20;13.18;;;19.30;99.90;;;;;;5052588;28;20060;-65
2023/06/21 05:20:57;;;;;;;21.02;12.73;;;19.00;99.90;;;;;;5052318;28;20049;-65
2023/06/21 05:23:22;;;;;;;18.40;11.05;;;19.40;99.90;;;;;;5052222;28;20033;-64
2023/06/21 05:25:48;;;;;;;17.67;11.80;;;19.20;99.90;;;;;;5051277;28;20048;-64
2023/06/21 05:28:13;;;;;;;21.75;12.05;;;20.00;99.90;;;;;;5052546;28;20040;-64
2023/06/21 05:30:39;;;;;;;18.60;11.95;;;19.50;99.90;;;;;;5052544;28;20456;-64
2023/06/21 05:33:04;;;;;;;17.65;11.98;;;19.30;99.90;;;;;;5052225;28;20048;-64
2023/06/21 05:35:30;;;;;;;21.08;10.90;;;19.30;99.90;;;;;;5052513;28;20037;-64
2023/06/21 05:37:55;;;;;;;15.80;10.25;;;19.40;99.90;;;;;;5050892;28;20484;-64
2023/06/21 05:40:22;;;;;;;15.32;10.00;;;19.40;99.90;;;;;;5052361;28;20504;-65
2023/06/21 05:42:48;;;;;;;20.25;11.70;;;19.70;99.90;;;;;;5052372;28;20045;-63
2023/06/21 05:45:13;;;;;;;16.63;10.52;;;19.70;99.90;;;;;;5053882;28;20499;-64
2023/06/21 05:47:39;;;;;;;15.55;10.70;;;19.30;99.90;;;;;;5054609;28;20120;-63
2023/06/21 05:50:05;;;;;;;15.93;10.90;;;19.60;99.90;;;;;;5056090;28;20033;-64
2023/06/21 05:52:31;;;;;;;16.98;11.15;;;19.40;99.90;;;;;;5054664;28;20423;-64
2023/06/21 05:54:56;;;;;;;22.17;10.77;;;19.70;99.90;;;;;;5055892;28;20045;-64
2023/06/21 05:57:24;;;;;;;20.02;11.30;;;20.20;99.90;;;;;;5054622;28;20057;-64
2023/06/21 05:59:50;;;;;;;21.25;10.73;;;;;;;;;;5054297;28;20048;-64
2023/06/21 06:02:16;;;;;;;22.40;11.35;;;19.80;99.90;;;;;;5055847;28;20037;-63
2023/06/21 06:04:42;;;;;;;19.52;9.93;;;19.80;99.90;;;;;;5055442;28;20045;-63
2023/06/21 06:07:07;;;;;;;15.43;8.80;;;19.80;99.90;;;;;;5055699;28;20037;-64
2023/06/21 06:09:33;;;;;;;16.80;10.68;;;20.40;99.90;;;;;;5037527;28;20048;-65
2023/06/21 06:11:58;;;;;;;16.23;10.15;;;19.80;99.90;;;;;;5055671;28;20148;-63
2023/06/21 06:14:24;;;;;;;14.48;9.23;;;20.10;99.90;;;;;;5055593;28;20094;-65
2023/06/21 06:16:50;;;;;;;13.50;9.25;;;19.90;99.90;;;;;;5054534;28;20408;-70
2023/06/21 06:19:15;;;;;;;12.40;8.75;;;20.00;99.90;;;;;;5055259;28;20032;-70
2023/06/21 06:21:41;;;;;;;17.90;9.75;;;20.00;99.90;;;;;;5053938;28;20143;-71
2023/06/21 06:24:07;;;;;;;13.82;8.90;;;20.10;99.90;;;;;;5053855;28;20099;-71
2023/06/21 06:26:33;;;;;;;17.10;9.25;;;20.20;99.90;;;;;;5055411;28;20045;-71
2023/06/21 06:28:58;;;;;;;15.10;8.68;;;20.20;99.90;;;;;;5055052;28;20040;-70
2023/06/21 06:31:28;;;;;;;14.25;8.88;;;20.20;99.90;;;;;;5054019;28;20049;-70
2023/06/21 06:33:54;;;;;;;12.13;8.02;;;20.20;99.90;;;;;;5054910;28;20044;-70
2023/06/21 06:36:20;;;;;;;15.13;9.27;;;20.30;99.90;;;;;;5055217;28;20040;-71
2023/06/21 06:38:50;;;;;;;19.95;8.48;;;20.40;99.90;;;;;;5055077;28;20388;-70
2023/06/21 06:41:17;;;;;;;13.07;7.77;;;20.50;99.90;;;;;;5053596;28;20243;-70
2023/06/21 06:43:43;;;;;;;14.23;7.72;;;20.60;99.90;;;;;;5054770;28;20033;-71
2023/06/21 06:46:09;;;;;;;9.13;5.72;;;20.60;99.90;;;;;;5055007;28;20075;-71
2023/06/21 06:48:35;;;;;;;11.38;6.93;;;20.50;99.90;;;;;;5055020;28;20033;-71
2023/06/21 06:51:00;;;;;;;8.43;6.00;;;20.90;99.90;;;;;;5054977;28;20492;-72
2023/06/21 06:53:26;;;;;;;10.90;6.05;;;20.70;99.90;;;;;;5054676;28;20122;-71
2023/06/21 06:55:52;;;;;;;9.18;5.90;;;20.80;99.90;;;;;;5053822;28;20045;-71
2023/06/21 06:58:21;;;;;;;13.07;6.07;;;21.10;99.90;;;;;;5054707;28;20060;-71
2023/06/21 07:00:47;;;;;;;8.73;4.68;;;21.00;99.90;;;;;;5053396;28;20131;-71
2023/06/21 07:03:13;;;;;;;8.30;4.95;;;21.20;99.90;;;;;;5053393;28;20041;-71
2023/06/21 07:05:48;;;;;;;9.02;4.57;;;21.20;99.90;;;;;;5054345;28;20040;-71
2023/06/21 07:08:14;;;;;;;6.65;4.13;;;21.30;99.90;;;;;;5054531;28;20037;-72
2023/06/21 07:10:40;;;;;;;8.60;4.55;;;21.30;99.90;;;;;;5053376;28;20029;-70
2023/06/21 07:13:06;;;;;;;6.35;3.53;;;21.10;99.90;;;;;;5054508;28;20116;-70
2023/06/21 07:15:33;;;;;;;7.15;3.78;;;21.60;99.90;;;;;;5054210;28;20045;-70
2023/06/21 07:17:58;;;;;;;8.77;4.70;;;21.40;99.90;;;;;;5052955;28;20086;-70
2023/06/21 07:20:24;;;;;;;7.10;4.25;;;21.70;99.90;;;;;;5054233;28;20045;-70
2023/06/21 07:22:50;;;;;;;7.45;3.47;;;21.70;99.90;;;;;;5054182;28;20075;-71
2023/06/21 07:25:15;;;;;;;5.57;3.22;;;21.80;99.90;;;;;;5053957;28;20029;-71
2023/06/21 07:27:41;;;;;;;3.67;2.55;;;21.80;99.90;;;;;;5054216;28;20037;-71
2023/06/21 07:30:08;;;;;;;3.83;2.75;;;21.80;95.60;;;;;;5054236;28;20041;-70
2023/06/21 07:32:33;;;;;;;6.75;2.88;;;21.90;97.40;;;;;;5053845;28;20036;-71
2023/06/21 07:35:02;;;;;;;6.35;3.17;;;21.60;98.50;;;;;;5052542;28;20089;-70
2023/06/21 07:37:30;;;;;;;6.80;3.17;;;22.00;96.90;;;;;;5054180;28;20129;-71
2023/06/21 07:39:56;;;;;;;4.85;2.67;;;22.10;97.50;;;;;;5069308;28;20051;-71
2023/06/21 07:42:24;;;;;;;4.55;2.95;;;22.10;96.60;;;;;;5053873;28;20052;-71
2023/06/21 07:44:56;;;;;;;5.18;2.95;;;22.30;97.30;;;;;;5054075;28;20044;-71
2023/06/21 07:47:22;;;;;;;4.13;2.63;;;22.30;95.20;;;;;;5052648;28;20128;-71
2023/06/21 07:49:48;;;;;;;5.40;3.08;;;23.00;97.40;;;;;;5052762;28;20393;-71
2023/06/21 07:52:14;;;;;;;3.80;2.25;;;23.00;94.10;;;;;;5052661;28;20052;-70
2023/06/21 07:54:39;;;;;;;15.18;3.22;;;22.80;95.60;;;;;;5052619;28;20053;-72
2023/06/21 07:57:05;;;;;;;3.60;2.13;;;22.70;95.70;;;;;;5053533;28;20090;-71
2023/06/21 07:59:31;;;;;;;6.72;3.17;;;22.60;73.60;;;;;;5053496;28;20041;-71
2023/06/21 08:01:57;;;;;;;5.50;2.53;;;23.00;1.00;;;;;;5053700;28;20049;-71
2023/06/21 08:04:22;;;;;;;3.45;2.25;;;22.70;99.90;;;;;;5053715;28;20063;-71
2023/06/21 08:06:48;;;;;;;6.32;2.72;;;23.30;1.00;;;;;;5053459;28;20392;-71
2023/06/21 08:09:14;;;;;;;4.45;2.92;;;23.20;1.00;;;;;;5052435;28;20055;-71
2023/06/21 08:11:39;;;;;;;5.60;2.90;;;23.20;99.90;;;;;;5051991;28;20084;-72
2023/06/21 08:14:05;;;;;;;8.43;2.75;;;23.00;89.20;;;;;;5053547;28;20082;-71
2023/06/21 08:16:31;;;;;;;2.83;2.25;;;23.20;99.90;;;;;;5053049;28;20074;-71
2023/06/21 08:18:56;;;;;;;6.75;3.25;;;23.40;99.90;;;;;;5053244;28;20041;-71
2023/06/21 08:21:22;;;;;;;3.15;2.28;;;22.90;99.90;;;;;;5053223;28;20405;-72
2023/06/21 08:23:47;;;;;;;4.90;2.22;;;23.20;99.90;;;;;;5051893;28;20109;-72
2023/06/21 08:26:13;;;;;;;4.82;2.50;;;23.00;99.90;;;;;;5053269;28;20092;-71
2023/06/21 08:28:39;;;;;;;3.78;2.20;;;23.20;1.00;;;;;;5053249;28;20086;-71
2023/06/21 08:31:04;;;;;;;5.68;2.67;;;23.20;55.60;;;;;;5051701;28;20080;-71
2023/06/21 08:33:30;;;;;;;4.65;2.55;;;23.20;99.90;;;;;;5053170;28;20045;-72
2023/06/21 08:35:55;;;;;;;6.85;3.08;;;23.40;1.00;;;;;;5052736;28;20037;-72
2023/06/21 08:38:21;;;;;;;4.18;2.50;;;23.40;1.00;;;;;;5053007;28;20045;-70
2023/06/21 08:40:47;;;;;;;4.88;2.22;;;23.50;68.70;;;;;;5052882;28;20049;-71
2023/06/21 08:43:12;;;;;;;3.00;2.00;;;24.00;2.60;;;;;;5052713;28;20481;-71
2023/06/21 08:45:38;;;;;;;3.95;2.30;;;23.60;1.00;;;;;;5053091;28;20504;-71
2023/06/21 08:48:06;;;;;;;3.45;2.20;;;23.70;99.90;;;;;;5052654;28;20041;-70
2023/06/21 08:50:34;;;;;;;4.75;2.72;;;24.30;1.00;;;;;;5053122;28;20404;-70
2023/06/21 08:53:05;;;;;;;5.57;2.15;;;23.80;99.90;;;;;;5051237;28;20060;-71
2023/06/21 08:55:35;;;;;;;4.05;2.08;;;24.00;99.90;;;;;;5052628;28;20087;-70
2023/06/21 08:58:05;;;;;;;3.22;1.45;;;24.20;99.90;;;;;;5052643;28;20074;-71
2023/06/21 09:00:39;;;;;;;2.63;1.70;;;24.40;99.90;;;;;;5052724;28;20452;-71
2023/06/21 09:03:17;;;;;;;2.50;1.40;;;24.40;99.90;;;;;;5053148;28;20037;-71
2023/06/21 09:05:49;;;;;;;6.28;2.15;;;24.40;99.90;;;;;;5052933;28;20049;-71
2023/06/21 09:08:15;;;;;;;3.17;2.05;;;24.40;99.90;;;;;;5052405;28;20037;-72
2023/06/21 09:10:42;;;;;;;2.38;1.70;;;24.40;99.90;;;;;;5052674;28;20029;-71
2023/06/21 09:13:09;;;;;;;2.35;1.52;;;24.30;99.90;;;;;;5052756;28;20044;-71
2023/06/21 09:15:36;;;;;;;2.75;2.00;;;24.30;99.90;;;;;;5052999;28;20037;-71
2023/06/21 09:18:02;;;;;;;1.83;1.42;;;24.10;99.90;;;;;;5052976;28;20045;-71
2023/06/21 09:20:29;;;;;;;3.25;1.65;;;24.00;99.90;;;;;;5055595;28;20044;-72
2023/06/21 09:22:57;;;;;;;4.57;1.75;;;23.90;99.90;;;;;;5056670;28;20047;-71
2023/06/21 09:25:22;;;;;;;3.17;1.73;;;23.80;99.90;;;;;;5055428;28;20136;-71
2023/06/21 09:27:48;;;;;;;2.95;1.75;;;23.90;99.90;;;;;;5056313;28;20524;-71
2023/06/21 09:30:14;;;;;;;3.70;1.63;;;23.80;99.90;;;;;;5056476;28;20041;-71
2023/06/21 09:32:41;;;;;;;3.78;2.05;;;23.90;99.90;;;;;;5056412;28;20112;-71
2023/06/21 09:35:07;;;;;;;3.35;1.95;;;24.00;99.90;;;;;;5056194;28;20427;-72
2023/06/21 09:37:34;;;;;;;2.83;1.40;;;24.10;99.90;;;;;;5056256;28;20489;-71
2023/06/21 09:40:01;;;;;;;2.05;1.27;;;24.20;99.90;;;;;;5056034;28;20041;-71
2023/06/21 09:42:27;;;;;;;3.03;1.10;;;24.30;99.90;;;;;;5055988;28;20048;-71
2023/06/21 09:44:53;;;;;;;3.33;1.58;;;24.40;99.90;;;;;;5056002;28;20040;-70
2023/06/21 09:47:19;;;;;;;2.25;1.42;;;24.40;99.90;;;;;;5055747;28;20051;-71
2023/06/21 09:49:49;;;;;;;4.47;1.85;;;24.60;99.90;;;;;;5055868;28;20086;-70
2023/06/21 09:52:15;;;;;;;2.53;1.58;;;24.60;99.90;;;;;;5055704;28;20048;-70
2023/06/21 09:54:42;;;;;;;2.80;1.83;;;24.80;99.90;;;;;;5054390;28;20053;-70
2023/06/21 09:57:08;;;;;;;4.13;1.48;;;24.70;99.90;;;;;;5055523;28;20132;-70
2023/06/21 09:59:37;;;;;;;4.38;1.65;;;24.90;99.90;;;;;;5055778;28;20044;-70
2023/06/21 10:02:04;;;;;;;1.73;1.33;;;24.90;99.90;;;;;;5055512;28;20041;-70
2023/06/21 10:04:42;;;;;;;2.58;1.60;;;25.00;99.90;;;;;;5054513;28;20136;-70
2023/06/21 10:07:08;;;;;;;2.42;1.33;;;24.90;14.40;;;;;;5054162;28;20047;-70
2023/06/21 10:09:37;;;;;;;2.75;1.27;;;25.10;74.50;;;;;;5055697;28;20039;-70
2023/06/21 10:12:10;;;;;;;1.20;1.10;;;25.40;64.10;;;;;;5055631;28;20045;-69
2023/06/21 10:14:36;;;;;;;1.25;0.90;;;25.40;82.00;;;;;;5037677;28;20041;-70
2023/06/21 10:17:03;;;;;;;1.38;0.85;;;25.50;78.70;;;;;;5054320;28;20052;-70
2023/06/21 10:19:32;;;;;;;1.52;1.20;;;25.50;1.00;;;;;;5055124;28;20072;-69
2023/06/21 10:21:59;;;;;;;2.88;1.20;;;25.30;1.00;;;;;;5055443;28;20472;-68
2023/06/21 10:24:37;;;;;;;2.20;1.33;;;25.40;1.00;;;;;;5054216;28;20032;-70
2023/06/21 10:27:05;;;;;;;1.90;1.10;;;25.30;1.00;;;;;;5055521;28;20052;-69
2023/06/21 10:29:32;;;;;;;1.08;0.90;;;25.50;1.00;;;;;;5055433;28;20392;-71
2023/06/21 10:32:00;;;;;;;1.63;1.00;;;25.40;1.00;;;;;;5052513;28;20055;-68
2023/06/21 10:34:28;;;;;;;3.13;1.42;;;25.50;1.00;;;;;;5055316;28;20037;-69
2023/06/21 10:37:02;;;;;;;1.23;1.05;;;25.50;1.00;;;;;;5055232;28;20041;-71
2023/06/21 10:39:32;;;;;;;1.42;0.90;;;25.50;1.00;;;;;;5055238;28;20112;-69
2023/06/21 10:41:59;;;;;;;1.60;0.90;;;25.60;1.00;;;;;;5053620;28;20072;-71
2023/06/21 10:44:28;;;;;;;5.88;0.95;;;25.50;1.00;;;;;;5055181;28;20037;-70
2023/06/21 10:46:55;;;;;;;4.00;1.25;;;25.40;1.00;;;;;;5055110;28;20048;-70
2023/06/21 10:49:21;;;;;;;1.20;1.00;;;25.30;1.00;;;;;;5054861;28;20041;-70
2023/06/21 10:51:48;;;;;;;2.28;1.08;;;24.90;1.00;;;;;;5054653;28;20392;-70
2023/06/21 10:54:15;;;;;;;2.17;1.27;;;25.10;1.00;;;;;;5054539;28;20049;-69
2023/06/21 10:56:41;;;;;;;1.45;0.90;;;25.30;1.00;;;;;;5055000;28;20090;-71
2023/06/21 10:59:08;;;;;;;1.40;1.10;;;25.90;1.00;;;;;;5054653;28;20469;-71
2023/06/21 11:01:35;;;;;;;2.10;1.00;;;25.60;1.00;;;;;;5054924;28;20439;-71
2023/06/21 11:04:01;;;;;;;2.88;1.15;;;25.70;1.00;;;;;;5053493;28;20049;-71
2023/06/21 11:06:33;;;;;;;0.80;0.80;;;25.60;1.00;;;;;;5054748;28;20373;-72
2023/06/21 11:09:08;;;;;;;1.20;0.80;;;25.40;1.00;;;;;;5054422;28;20116;-71
2023/06/21 11:11:36;;;;;;;1.02;0.80;;;25.20;1.00;;;;;;5054107;28;20120;-72
2023/06/21 11:14:03;;;;;;;1.50;0.80;;;25.00;1.00;;;;;;5054242;28;20076;-72
2023/06/21 11:16:31;;;;;;;2.53;0.98;;;24.90;1.00;;;;;;5054239;28;20397;-72
2023/06/21 11:19:02;;;;;;;1.17;0.82;;;24.90;1.00;;;;;;5054100;28;20477;-72
2023/06/21 11:21:47;;;;;;;4.18;1.40;;;24.80;1.00;;;;;;5053833;28;20141;-71
2023/06/21 11:24:17;;;;;;;1.48;1.00;;;24.90;1.00;;;;;;5053844;28;20493;-72
2023/06/21 11:26:53;;;;;;;1.10;0.85;;;25.10;1.00;;;;;;5054188;28;20040;-71
2023/06/21 11:29:19;;;;;;;1.02;0.73;;;25.00;1.00;;;;;;5053974;28;20335;-72
2023/06/21 11:31:44;;;;;;;2.13;1.10;;;25.10;1.00;;;;;;5052717;28;20074;-71
2023/06/21 11:34:29;;;;;;;1.48;1.08;;;25.20;99.90;;;;;;5054059;28;20124;-71
2023/06/21 11:36:55;;;;;;;2.45;1.30;;;25.10;99.90;;;;;;5054222;28;20032;-72
2023/06/21 11:39:21;;;;;;;1.15;1.00;;;25.30;1.00;;;;;;5054152;28;20041;-72
2023/06/21 11:41:47;;;;;;;1.38;1.10;;;25.40;1.00;;;;;;5053766;28;20037;-72
2023/06/21 11:44:13;;;;;;;1.05;0.95;;;25.40;99.90;;;;;;5052501;28;20386;-73
2023/06/21 11:46:40;;;;;;;1.95;1.10;;;25.90;99.90;;;;;;5052528;28;20044;-72
2023/06/21 11:49:06;;;;;;;3.10;1.10;;;;;;;;;;5053784;28;20579;-72
2023/06/21 11:51:33;;;;;;;1.88;1.30;;;26.10;99.90;;;;;;5052254;28;20052;-72
2023/06/21 11:53:59;;;;;;;4.78;1.00;;;26.10;99.90;;;;;;5053523;28;20103;-72
2023/06/21 11:56:32;;;;;;;4.78;1.02;;;26.10;99.90;;;;;;5053762;28;20394;-72
2023/06/21 11:58:59;;;;;;;1.77;1.10;;;25.90;99.90;;;;;;5053630;28;20451;-71
2023/06/21 12:01:25;;;;;;;2.58;1.27;;;25.90;99.90;;;;;;5053730;28;20037;-72
2023/06/21 12:04:01;;;;;;;1.63;1.10;;;25.80;99.90;;;;;;5053572;28;20488;-72
2023/06/21 12:06:28;;;;;;;1.80;1.00;;;25.90;99.90;;;;;;5035314;28;20077;-72
2023/06/21 12:08:57;;;;;;;1.35;0.98;;;26.10;99.90;;;;;;5053214;28;20543;-72
2023/06/21 12:11:25;;;;;;;1.30;0.90;;;26.20;99.90;;;;;;5053078;28;20401;-72
2023/06/21 12:13:51;;;;;;;1.15;0.80;;;26.30;99.90;;;;;;5053232;28;20097;-73
2023/06/21 12:16:16;;;;;;;2.40;1.35;;;26.50;99.90;;;;;;5051875;28;20435;-72
2023/06/21 12:18:42;;;;;;;1.80;1.10;;;26.30;99.90;;;;;;5051737;28;20570;-71
2023/06/21 12:21:09;;;;;;;1.88;1.15;;;26.60;99.90;;;;;;5053105;28;20128;-72
2023/06/21 12:23:35;;;;;;;1.15;0.90;;;26.70;99.90;;;;;;5053132;28;20449;-72
2023/06/21 12:26:02;;;;;;;1.33;0.70;;;26.80;99.90;;;;;;5053229;28;20106;-71
2023/06/21 12:28:30;;;;;;;2.03;1.10;;;26.90;99.90;;;;;;5051489;28;20049;-72
2023/06/21 12:31:15;;;;;;;2.13;1.30;;;27.00;99.90;;;;;;5052935;28;20063;-71
2023/06/21 12:33:41;;;;;;;1.17;0.90;;;27.00;99.90;;;;;;5052690;28;20044;-71
2023/06/21 12:36:14;;;;;;;1.02;0.68;;;26.90;99.90;;;;;;5051540;28;20473;-72
2023/06/21 12:38:46;;;;;;;2.55;1.27;;;27.00;99.90;;;;;;5052707;28;20457;-71
2023/06/21 12:41:15;;;;;;;1.60;0.95;;;26.60;99.90;;;;;;5052413;28;20049;-72
2023/06/21 12:43:42;;;;;;;2.63;1.05;;;26.50;99.90;;;;;;5051146;28;20040;-72
2023/06/21 12:46:09;;;;;;;1.42;1.00;;;26.60;99.90;;;;;;5052615;28;20487;-70
2023/06/21 12:48:36;;;;;;;2.22;1.00;;;26.90;99.90;;;;;;5051396;28;20037;-70